sensor_id;sensor_type;location;lat;lon;timestamp;P1;durP1;ratioP1;P2;durP2;ratioP2
4355;SDS011;64374;51.482;7.408;2023-10-19T00:02:35;5.68;;;4.25;;
4355;SDS011;64374;51.482;7.408;2023-10-19T00:05:22;5.45;;;4.53;;
4355;SDS011;64374;51.482;7.408;2023-10-19T00:08:12;4.73;;;3.80;;
4355;SDS011;64374;51.482;7.408;2023-10-19T00:11:08;3.80;;;3.50;;
4355;SDS011;64374;51.482;7.408;2023-10-19T00:14:07;4.82;;;3.80;;
4355;SDS011;64374;51.482;7.408;2023-10-19T00:17:00;5.40;;;3.40;;
4355;SDS011;64374;51.482;7.408;2023-10-19T00:19:50;3.63;;;3.13;;
4355;SDS011;64374;51.482;7.408;2023-10-19T00:22:45;5.18;;;3.72;;
4355;SDS011;64374;51.482;7.408;2023-10-19T00:25:33;4.60;;;3.60;;
4355;SDS011;64374;51.482;7.408;2023-10-19T00:28:21;3.47;;;3.17;;
4355;SDS011;64374;51.482;7.408;2023-10-19T00:31:13;4.40;;;3.27;;
4355;SDS011;64374;51.482;7.408;2023-10-19T00:34:05;8.73;;;3.65;;
4355;SDS011;64374;51.482;7.408;2023-10-19T00:36:52;4.65;;;3.60;;
4355;SDS011;64374;51.482;7.408;2023-10-19T00:39:41;4.20;;;3.67;;
4355;SDS011;64374;51.482;7.408;2023-10-19T00:42:28;4.20;;;3.20;;
4355;SDS011;64374;51.482;7.408;2023-10-19T00:45:20;5.50;;;4.00;;
4355;SDS011;64374;51.482;7.408;2023-10-19T00:48:14;4.43;;;3.90;;
4355;SDS011;64374;51.482;7.408;2023-10-19T00:51:03;4.80;;;4.30;;
4355;SDS011;64374;51.482;7.408;2023-10-19T00:53:54;4.50;;;4.10;;
4355;SDS011;64374;51.482;7.408;2023-10-19T00:56:45;4.70;;;4.20;;
4355;SDS011;64374;51.482;7.408;2023-10-19T00:59:34;4.00;;;3.70;;
4355;SDS011;64374;51.482;7.408;2023-10-19T01:02:36;4.85;;;4.00;;
4355;SDS011;64374;51.482;7.408;2023-10-19T01:05:29;3.97;;;3.55;;
4355;SDS011;64374;51.482;7.408;2023-10-19T01:08:23;7.25;;;3.80;;
4355;SDS011;64374;51.482;7.408;2023-10-19T01:11:16;4.88;;;4.10;;
4355;SDS011;64374;51.482;7.408;2023-10-19T01:14:25;4.70;;;3.95;;
4355;SDS011;64374;51.482;7.408;2023-10-19T01:17:13;3.60;;;3.30;;
4355;SDS011;64374;51.482;7.408;2023-10-19T01:19:42;4.00;;;3.60;;
4355;SDS011;64374;51.482;7.408;2023-10-19T01:22:11;4.05;;;3.40;;
4355;SDS011;64374;51.482;7.408;2023-10-19T01:24:44;3.83;;;3.43;;
4355;SDS011;64374;51.482;7.408;2023-10-19T01:27:16;4.00;;;3.40;;
4355;SDS011;64374;51.482;7.408;2023-10-19T01:29:47;4.30;;;3.90;;
4355;SDS011;64374;51.482;7.408;2023-10-19T01:32:18;4.80;;;4.33;;
4355;SDS011;64374;51.482;7.408;2023-10-19T01:34:47;5.18;;;4.45;;
4355;SDS011;64374;51.482;7.408;2023-10-19T01:37:15;5.25;;;4.28;;
4355;SDS011;64374;51.482;7.408;2023-10-19T01:40:01;4.82;;;4.43;;
4355;SDS011;64374;51.482;7.408;2023-10-19T01:42:31;5.18;;;4.53;;
4355;SDS011;64374;51.482;7.408;2023-10-19T01:44:59;5.90;;;5.30;;
4355;SDS011;64374;51.482;7.408;2023-10-19T01:47:26;6.13;;;4.53;;
4355;SDS011;64374;51.482;7.408;2023-10-19T01:50:14;5.82;;;5.28;;
4355;SDS011;64374;51.482;7.408;2023-10-19T01:53:07;5.38;;;4.85;;
4355;SDS011;64374;51.482;7.408;2023-10-19T01:56:01;6.30;;;5.20;;
4355;SDS011;64374;51.482;7.408;2023-10-19T01:58:50;7.18;;;5.20;;
4355;SDS011;64374;51.482;7.408;2023-10-19T02:01:39;5.45;;;4.95;;
4355;SDS011;64374;51.482;7.408;2023-10-19T02:04:30;6.78;;;6.13;;
4355;SDS011;64374;51.482;7.408;2023-10-19T02:07:20;6.05;;;5.45;;
4355;SDS011;64374;51.482;7.408;2023-10-19T02:10:14;6.63;;;5.27;;
4355;SDS011;64374;51.482;7.408;2023-10-19T02:13:02;8.35;;;5.60;;
4355;SDS011;64374;51.482;7.408;2023-10-19T02:15:51;8.25;;;5.88;;
4355;SDS011;64374;51.482;7.408;2023-10-19T02:18:38;7.55;;;5.40;;
4355;SDS011;64374;51.482;7.408;2023-10-19T02:21:24;5.35;;;4.57;;
4355;SDS011;64374;51.482;7.408;2023-10-19T02:24:15;6.53;;;5.28;;
4355;SDS011;64374;51.482;7.408;2023-10-19T02:27:04;5.70;;;5.10;;
4355;SDS011;64374;51.482;7.408;2023-10-19T02:29:56;6.18;;;5.15;;
4355;SDS011;64374;51.482;7.408;2023-10-19T02:32:43;5.68;;;4.95;;
4355;SDS011;64374;51.482;7.408;2023-10-19T02:35:29;7.03;;;5.43;;
4355;SDS011;64374;51.482;7.408;2023-10-19T02:38:16;6.50;;;4.90;;
4355;SDS011;64374;51.482;7.408;2023-10-19T02:41:02;5.30;;;4.80;;
4355;SDS011;64374;51.482;7.408;2023-10-19T02:43:49;7.68;;;4.80;;
4355;SDS011;64374;51.482;7.408;2023-10-19T02:46:38;4.90;;;4.43;;
4355;SDS011;64374;51.482;7.408;2023-10-19T02:49:27;6.53;;;4.65;;
4355;SDS011;64374;51.482;7.408;2023-10-19T02:52:15;4.70;;;4.30;;
4355;SDS011;64374;51.482;7.408;2023-10-19T02:55:01;5.88;;;4.60;;
4355;SDS011;64374;51.482;7.408;2023-10-19T02:57:49;6.30;;;4.10;;
4355;SDS011;64374;51.482;7.408;2023-10-19T03:00:36;4.95;;;3.78;;
4355;SDS011;64374;51.482;7.408;2023-10-19T03:03:25;6.13;;;3.95;;
4355;SDS011;64374;51.482;7.408;2023-10-19T03:06:11;4.50;;;3.42;;
4355;SDS011;64374;51.482;7.408;2023-10-19T03:08:58;5.50;;;3.47;;
4355;SDS011;64374;51.482;7.408;2023-10-19T03:11:46;3.57;;;3.27;;
4355;SDS011;64374;51.482;7.408;2023-10-19T03:14:38;5.80;;;3.40;;
4355;SDS011;64374;51.482;7.408;2023-10-19T03:17:23;4.47;;;3.07;;
4355;SDS011;64374;51.482;7.408;2023-10-19T03:20:12;5.32;;;3.38;;
4355;SDS011;64374;51.482;7.408;2023-10-19T03:23:01;4.38;;;3.50;;
4355;SDS011;64374;51.482;7.408;2023-10-19T03:25:52;3.70;;;3.30;;
4355;SDS011;64374;51.482;7.408;2023-10-19T03:28:59;4.57;;;3.33;;
4355;SDS011;64374;51.482;7.408;2023-10-19T03:31:52;5.53;;;3.20;;
4355;SDS011;64374;51.482;7.408;2023-10-19T03:34:39;4.00;;;3.37;;
4355;SDS011;64374;51.482;7.408;2023-10-19T03:37:30;4.10;;;3.17;;
4355;SDS011;64374;51.482;7.408;2023-10-19T03:40:19;8.18;;;4.20;;
4355;SDS011;64374;51.482;7.408;2023-10-19T03:43:12;3.43;;;3.13;;
4355;SDS011;64374;51.482;7.408;2023-10-19T03:46:12;3.50;;;3.20;;
4355;SDS011;64374;51.482;7.408;2023-10-19T03:49:12;3.30;;;2.90;;
4355;SDS011;64374;51.482;7.408;2023-10-19T03:52:03;5.10;;;3.60;;
4355;SDS011;64374;51.482;7.408;2023-10-19T03:55:08;3.35;;;2.97;;
4355;SDS011;64374;51.482;7.408;2023-10-19T03:58:01;3.72;;;3.00;;
4355;SDS011;64374;51.482;7.408;2023-10-19T04:00:51;3.65;;;2.88;;
4355;SDS011;64374;51.482;7.408;2023-10-19T04:03:38;3.88;;;2.80;;
4355;SDS011;64374;51.482;7.408;2023-10-19T04:06:33;3.97;;;2.80;;
4355;SDS011;64374;51.482;7.408;2023-10-19T04:09:24;3.35;;;3.05;;
4355;SDS011;64374;51.482;7.408;2023-10-19T04:12:15;2.60;;;2.40;;
4355;SDS011;64374;51.482;7.408;2023-10-19T04:15:03;3.63;;;2.65;;
4355;SDS011;64374;51.482;7.408;2023-10-19T04:17:57;3.33;;;2.42;;
4355;SDS011;64374;51.482;7.408;2023-10-19T04:20:45;4.13;;;2.40;;
4355;SDS011;64374;51.482;7.408;2023-10-19T04:23:45;4.70;;;2.00;;
4355;SDS011;64374;51.482;7.408;2023-10-19T04:26:33;3.70;;;2.50;;
4355;SDS011;64374;51.482;7.408;2023-10-19T04:29:26;3.95;;;2.28;;
4355;SDS011;64374;51.482;7.408;2023-10-19T04:32:13;3.70;;;2.30;;
4355;SDS011;64374;51.482;7.408;2023-10-19T04:35:12;3.25;;;2.30;;
4355;SDS011;64374;51.482;7.408;2023-10-19T04:38:03;3.53;;;2.10;;
4355;SDS011;64374;51.482;7.408;2023-10-19T04:41:03;2.95;;;2.30;;
4355;SDS011;64374;51.482;7.408;2023-10-19T04:43:53;2.20;;;2.00;;
4355;SDS011;64374;51.482;7.408;2023-10-19T04:46:43;4.68;;;1.80;;
4355;SDS011;64374;51.482;7.408;2023-10-19T04:49:31;3.88;;;2.28;;
4355;SDS011;64374;51.482;7.408;2023-10-19T04:52:18;4.30;;;2.60;;
4355;SDS011;64374;51.482;7.408;2023-10-19T04:55:05;2.22;;;2.03;;
4355;SDS011;64374;51.482;7.408;2023-10-19T04:57:52;3.90;;;2.53;;
4355;SDS011;64374;51.482;7.408;2023-10-19T05:00:42;3.90;;;2.50;;
4355;SDS011;64374;51.482;7.408;2023-10-19T05:03:33;4.88;;;2.20;;
4355;SDS011;64374;51.482;7.408;2023-10-19T05:06:20;4.50;;;2.60;;
4355;SDS011;64374;51.482;7.408;2023-10-19T05:09:07;4.05;;;2.80;;
4355;SDS011;64374;51.482;7.408;2023-10-19T05:11:58;5.60;;;2.40;;
4355;SDS011;64374;51.482;7.408;2023-10-19T05:14:44;3.72;;;2.60;;
4355;SDS011;64374;51.482;7.408;2023-10-19T05:17:31;5.72;;;3.03;;
4355;SDS011;64374;51.482;7.408;2023-10-19T05:20:00;4.28;;;2.45;;
4355;SDS011;64374;51.482;7.408;2023-10-19T05:22:34;3.65;;;2.15;;
4355;SDS011;64374;51.482;7.408;2023-10-19T05:25:02;5.28;;;2.38;;
4355;SDS011;64374;51.482;7.408;2023-10-19T05:27:31;6.55;;;2.40;;
4355;SDS011;64374;51.482;7.408;2023-10-19T05:29:59;5.57;;;2.60;;
4355;SDS011;64374;51.482;7.408;2023-10-19T05:32:30;4.20;;;2.78;;
4355;SDS011;64374;51.482;7.408;2023-10-19T05:34:58;6.10;;;3.10;;
4355;SDS011;64374;51.482;7.408;2023-10-19T05:37:31;3.20;;;2.38;;
4355;SDS011;64374;51.482;7.408;2023-10-19T05:40:19;4.38;;;2.90;;
4355;SDS011;64374;51.482;7.408;2023-10-19T05:43:07;5.05;;;2.90;;
4355;SDS011;64374;51.482;7.408;2023-10-19T05:45:58;3.13;;;2.78;;
4355;SDS011;64374;51.482;7.408;2023-10-19T05:48:45;3.58;;;2.30;;
4355;SDS011;64374;51.482;7.408;2023-10-19T05:51:33;2.45;;;2.25;;
4355;SDS011;64374;51.482;7.408;2023-10-19T05:54:20;3.83;;;2.55;;
4355;SDS011;64374;51.482;7.408;2023-10-19T05:57:14;5.10;;;2.40;;
4355;SDS011;64374;51.482;7.408;2023-10-19T06:00:01;4.83;;;2.57;;
4355;SDS011;64374;51.482;7.408;2023-10-19T06:02:56;4.50;;;2.63;;
4355;SDS011;64374;51.482;7.408;2023-10-19T06:05:46;3.53;;;2.60;;
4355;SDS011;64374;51.482;7.408;2023-10-19T06:08:34;4.68;;;2.92;;
4355;SDS011;64374;51.482;7.408;2023-10-19T06:11:20;4.80;;;2.70;;
4355;SDS011;64374;51.482;7.408;2023-10-19T06:14:08;3.65;;;2.50;;
4355;SDS011;64374;51.482;7.408;2023-10-19T06:16:57;3.20;;;2.50;;
4355;SDS011;64374;51.482;7.408;2023-10-19T06:19:53;5.15;;;2.88;;
4355;SDS011;64374;51.482;7.408;2023-10-19T06:22:40;5.10;;;2.42;;
4355;SDS011;64374;51.482;7.408;2023-10-19T06:25:27;3.72;;;2.47;;
4355;SDS011;64374;51.482;7.408;2023-10-19T06:28:15;7.18;;;2.60;;
4355;SDS011;64374;51.482;7.408;2023-10-19T06:31:01;4.45;;;2.72;;
4355;SDS011;64374;51.482;7.408;2023-10-19T06:33:49;3.58;;;2.50;;
4355;SDS011;64374;51.482;7.408;2023-10-19T06:36:38;4.68;;;2.50;;
4355;SDS011;64374;51.482;7.408;2023-10-19T06:39:24;5.03;;;2.97;;
4355;SDS011;64374;51.482;7.408;2023-10-19T06:42:14;4.05;;;2.75;;
4355;SDS011;64374;51.482;7.408;2023-10-19T06:45:01;4.40;;;2.72;;
4355;SDS011;64374;51.482;7.408;2023-10-19T06:47:49;3.30;;;2.80;;
4355;SDS011;64374;51.482;7.408;2023-10-19T06:50:38;5.60;;;2.88;;
4355;SDS011;64374;51.482;7.408;2023-10-19T06:53:27;3.60;;;2.50;;
4355;SDS011;64374;51.482;7.408;2023-10-19T06:56:16;4.43;;;2.58;;
4355;SDS011;64374;51.482;7.408;2023-10-19T06:59:06;5.73;;;2.67;;
4355;SDS011;64374;51.482;7.408;2023-10-19T07:01:52;6.10;;;3.22;;
4355;SDS011;64374;51.482;7.408;2023-10-19T07:04:42;4.45;;;2.95;;
4355;SDS011;64374;51.482;7.408;2023-10-19T07:07:28;3.97;;;2.85;;
4355;SDS011;64374;51.482;7.408;2023-10-19T07:10:18;14.45;;;8.82;;
4355;SDS011;64374;51.482;7.408;2023-10-19T07:13:05;5.03;;;3.30;;
4355;SDS011;64374;51.482;7.408;2023-10-19T07:15:53;6.00;;;3.40;;
4355;SDS011;64374;51.482;7.408;2023-10-19T07:18:44;4.03;;;2.92;;
4355;SDS011;64374;51.482;7.408;2023-10-19T07:21:30;3.92;;;2.30;;
4355;SDS011;64374;51.482;7.408;2023-10-19T07:24:20;5.20;;;2.83;;
4355;SDS011;64374;51.482;7.408;2023-10-19T07:27:08;4.82;;;2.90;;
4355;SDS011;64374;51.482;7.408;2023-10-19T07:30:03;7.20;;;2.80;;
4355;SDS011;64374;51.482;7.408;2023-10-19T07:32:55;7.45;;;3.20;;
4355;SDS011;64374;51.482;7.408;2023-10-19T07:35:44;5.60;;;3.17;;
4355;SDS011;64374;51.482;7.408;2023-10-19T07:38:13;5.72;;;2.92;;
4355;SDS011;64374;51.482;7.408;2023-10-19T07:40:43;3.92;;;2.67;;
4355;SDS011;64374;51.482;7.408;2023-10-19T07:43:11;3.22;;;2.40;;
4355;SDS011;64374;51.482;7.408;2023-10-19T07:45:40;3.30;;;2.53;;
4355;SDS011;64374;51.482;7.408;2023-10-19T07:48:12;6.80;;;3.40;;
4355;SDS011;64374;51.482;7.408;2023-10-19T07:50:42;6.95;;;3.35;;
4355;SDS011;64374;51.482;7.408;2023-10-19T07:53:10;6.43;;;3.22;;
4355;SDS011;64374;51.482;7.408;2023-10-19T07:55:39;8.52;;;3.60;;
4355;SDS011;64374;51.482;7.408;2023-10-19T07:58:10;5.15;;;3.05;;
4355;SDS011;64374;51.482;7.408;2023-10-19T08:00:39;5.85;;;2.90;;
4355;SDS011;64374;51.482;7.408;2023-10-19T08:03:08;4.77;;;2.90;;
4355;SDS011;64374;51.482;7.408;2023-10-19T08:05:41;5.70;;;2.92;;
4355;SDS011;64374;51.482;7.408;2023-10-19T08:08:10;2.83;;;2.50;;
4355;SDS011;64374;51.482;7.408;2023-10-19T08:10:39;4.18;;;2.97;;
4355;SDS011;64374;51.482;7.408;2023-10-19T08:13:07;2.88;;;2.55;;
4355;SDS011;64374;51.482;7.408;2023-10-19T08:15:36;3.50;;;2.80;;
4355;SDS011;64374;51.482;7.408;2023-10-19T08:18:04;9.50;;;2.67;;
4355;SDS011;64374;51.482;7.408;2023-10-19T08:20:32;6.60;;;3.20;;
4355;SDS011;64374;51.482;7.408;2023-10-19T08:23:05;4.47;;;2.80;;
4355;SDS011;64374;51.482;7.408;2023-10-19T08:25:33;5.80;;;2.95;;
4355;SDS011;64374;51.482;7.408;2023-10-19T08:28:21;2.90;;;2.70;;
4355;SDS011;64374;51.482;7.408;2023-10-19T08:30:50;7.20;;;2.88;;
4355;SDS011;64374;51.482;7.408;2023-10-19T08:33:24;3.85;;;2.72;;
4355;SDS011;64374;51.482;7.408;2023-10-19T08:36:18;5.95;;;3.00;;
4355;SDS011;64374;51.482;7.408;2023-10-19T08:39:07;5.18;;;2.63;;
4355;SDS011;64374;51.482;7.408;2023-10-19T08:41:59;3.67;;;2.50;;
4355;SDS011;64374;51.482;7.408;2023-10-19T08:44:49;3.20;;;2.30;;
4355;SDS011;64374;51.482;7.408;2023-10-19T08:47:36;5.45;;;2.50;;
4355;SDS011;64374;51.482;7.408;2023-10-19T08:50:23;3.55;;;2.67;;
4355;SDS011;64374;51.482;7.408;2023-10-19T08:53:11;5.57;;;2.90;;
4355;SDS011;64374;51.482;7.408;2023-10-19T08:56:01;4.63;;;2.22;;
4355;SDS011;64374;51.482;7.408;2023-10-19T08:58:49;6.40;;;2.33;;
4355;SDS011;64374;51.482;7.408;2023-10-19T09:01:37;3.70;;;2.50;;
4355;SDS011;64374;51.482;7.408;2023-10-19T09:04:24;4.20;;;2.30;;
4355;SDS011;64374;51.482;7.408;2023-10-19T09:07:16;5.35;;;2.50;;
4355;SDS011;64374;51.482;7.408;2023-10-19T09:10:03;2.50;;;2.30;;
4355;SDS011;64374;51.482;7.408;2023-10-19T09:13:00;5.63;;;2.60;;
4355;SDS011;64374;51.482;7.408;2023-10-19T09:15:48;2.88;;;2.03;;
4355;SDS011;64374;51.482;7.408;2023-10-19T09:18:35;5.80;;;2.40;;
4355;SDS011;64374;51.482;7.408;2023-10-19T09:21:25;3.78;;;2.53;;
4355;SDS011;64374;51.482;7.408;2023-10-19T09:24:20;3.83;;;2.20;;
4355;SDS011;64374;51.482;7.408;2023-10-19T09:27:06;6.63;;;2.20;;
4355;SDS011;64374;51.482;7.408;2023-10-19T09:29:57;3.30;;;2.40;;
4355;SDS011;64374;51.482;7.408;2023-10-19T09:32:44;3.92;;;2.30;;
4355;SDS011;64374;51.482;7.408;2023-10-19T09:35:35;3.25;;;2.60;;
4355;SDS011;64374;51.482;7.408;2023-10-19T09:38:22;4.55;;;2.40;;
4355;SDS011;64374;51.482;7.408;2023-10-19T09:41:12;5.18;;;2.47;;
4355;SDS011;64374;51.482;7.408;2023-10-19T09:44:03;7.13;;;2.58;;
4355;SDS011;64374;51.482;7.408;2023-10-19T09:46:59;4.97;;;2.20;;
4355;SDS011;64374;51.482;7.408;2023-10-19T09:49:50;6.43;;;2.50;;
4355;SDS011;64374;51.482;7.408;2023-10-19T09:52:39;3.58;;;2.17;;
4355;SDS011;64374;51.482;7.408;2023-10-19T09:55:32;6.45;;;2.20;;
4355;SDS011;64374;51.482;7.408;2023-10-19T09:58:23;4.10;;;2.00;;
4355;SDS011;64374;51.482;7.408;2023-10-19T10:01:15;3.60;;;2.05;;
4355;SDS011;64374;51.482;7.408;2023-10-19T10:04:31;4.05;;;2.20;;
4355;SDS011;64374;51.482;7.408;2023-10-19T10:07:02;3.28;;;2.00;;
4355;SDS011;64374;51.482;7.408;2023-10-19T10:09:35;4.30;;;2.23;;
4355;SDS011;64374;51.482;7.408;2023-10-19T10:12:18;6.82;;;2.50;;
4355;SDS011;64374;51.482;7.408;2023-10-19T10:14:55;4.50;;;2.40;;
4355;SDS011;64374;51.482;7.408;2023-10-19T10:17:25;4.38;;;2.10;;
4355;SDS011;64374;51.482;7.408;2023-10-19T10:19:59;4.40;;;2.00;;
4355;SDS011;64374;51.482;7.408;2023-10-19T10:23:21;6.28;;;2.13;;
4355;SDS011;64374;51.482;7.408;2023-10-19T10:26:12;5.10;;;2.00;;
4355;SDS011;64374;51.482;7.408;2023-10-19T10:28:41;6.95;;;2.60;;
4355;SDS011;64374;51.482;7.408;2023-10-19T10:31:14;4.50;;;2.17;;
4355;SDS011;64374;51.482;7.408;2023-10-19T10:33:48;6.50;;;2.17;;
4355;SDS011;64374;51.482;7.408;2023-10-19T10:36:22;5.47;;;1.95;;
4355;SDS011;64374;51.482;7.408;2023-10-19T10:38:53;4.82;;;2.30;;
4355;SDS011;64374;51.482;7.408;2023-10-19T10:41:36;4.95;;;2.00;;
4355;SDS011;64374;51.482;7.408;2023-10-19T10:44:06;5.00;;;2.20;;
4355;SDS011;64374;51.482;7.408;2023-10-19T10:46:39;4.88;;;1.92;;
4355;SDS011;64374;51.482;7.408;2023-10-19T10:49:08;5.60;;;2.60;;
4355;SDS011;64374;51.482;7.408;2023-10-19T10:51:39;5.80;;;2.30;;
4355;SDS011;64374;51.482;7.408;2023-10-19T10:54:08;8.20;;;2.70;;
4355;SDS011;64374;51.482;7.408;2023-10-19T10:56:39;5.15;;;2.40;;
4355;SDS011;64374;51.482;7.408;2023-10-19T10:59:14;5.70;;;1.90;;
4355;SDS011;64374;51.482;7.408;2023-10-19T11:01:44;5.45;;;2.40;;
4355;SDS011;64374;51.482;7.408;2023-10-19T11:04:13;4.07;;;2.00;;
4355;SDS011;64374;51.482;7.408;2023-10-19T11:06:50;5.20;;;1.95;;
4355;SDS011;64374;51.482;7.408;2023-10-19T11:09:23;6.13;;;2.00;;
4355;SDS011;64374;51.482;7.408;2023-10-19T11:11:51;4.50;;;1.90;;
4355;SDS011;64374;51.482;7.408;2023-10-19T11:14:20;4.65;;;2.13;;
4355;SDS011;64374;51.482;7.408;2023-10-19T11:16:52;4.43;;;1.98;;
4355;SDS011;64374;51.482;7.408;2023-10-19T11:19:21;5.90;;;1.90;;
4355;SDS011;64374;51.482;7.408;2023-10-19T11:22:10;5.00;;;2.27;;
4355;SDS011;64374;51.482;7.408;2023-10-19T11:24:39;14.65;;;6.88;;
4355;SDS011;64374;51.482;7.408;2023-10-19T11:27:07;7.60;;;4.30;;
4355;SDS011;64374;51.482;7.408;2023-10-19T11:29:36;8.55;;;3.00;;
4355;SDS011;64374;51.482;7.408;2023-10-19T11:32:05;7.97;;;2.30;;
4355;SDS011;64374;51.482;7.408;2023-10-19T11:34:33;6.22;;;2.40;;
4355;SDS011;64374;51.482;7.408;2023-10-19T11:37:02;6.28;;;2.10;;
4355;SDS011;64374;51.482;7.408;2023-10-19T11:39:36;8.80;;;2.50;;
4355;SDS011;64374;51.482;7.408;2023-10-19T11:42:04;7.05;;;3.05;;
4355;SDS011;64374;51.482;7.408;2023-10-19T11:44:32;5.40;;;2.10;;
4355;SDS011;64374;51.482;7.408;2023-10-19T11:47:03;6.65;;;2.20;;
4355;SDS011;64374;51.482;7.408;2023-10-19T11:49:31;5.82;;;2.20;;
4355;SDS011;64374;51.482;7.408;2023-10-19T11:51:59;5.78;;;2.63;;
4355;SDS011;64374;51.482;7.408;2023-10-19T11:54:48;7.82;;;3.20;;
4355;SDS011;64374;51.482;7.408;2023-10-19T11:57:37;11.93;;;3.40;;
4355;SDS011;64374;51.482;7.408;2023-10-19T12:00:24;6.95;;;2.50;;
4355;SDS011;64374;51.482;7.408;2023-10-19T12:03:19;11.40;;;2.80;;
4355;SDS011;64374;51.482;7.408;2023-10-19T12:06:08;5.88;;;2.30;;
4355;SDS011;64374;51.482;7.408;2023-10-19T12:08:55;5.47;;;2.45;;
4355;SDS011;64374;51.482;7.408;2023-10-19T12:11:45;4.85;;;2.30;;
4355;SDS011;64374;51.482;7.408;2023-10-19T12:14:33;5.68;;;3.08;;
4355;SDS011;64374;51.482;7.408;2023-10-19T12:17:19;8.38;;;2.50;;
4355;SDS011;64374;51.482;7.408;2023-10-19T12:20:15;5.57;;;2.70;;
4355;SDS011;64374;51.482;7.408;2023-10-19T12:23:03;4.43;;;2.30;;
4355;SDS011;64374;51.482;7.408;2023-10-19T12:25:53;5.97;;;2.25;;
4355;SDS011;64374;51.482;7.408;2023-10-19T12:28:25;7.47;;;2.45;;
4355;SDS011;64374;51.482;7.408;2023-10-19T12:30:53;7.70;;;2.60;;
4355;SDS011;64374;51.482;7.408;2023-10-19T12:33:30;6.13;;;2.25;;
4355;SDS011;64374;51.482;7.408;2023-10-19T12:35:58;7.28;;;2.60;;
4355;SDS011;64374;51.482;7.408;2023-10-19T12:38:26;9.07;;;2.30;;
4355;SDS011;64374;51.482;7.408;2023-10-19T12:40:57;4.45;;;2.50;;
4355;SDS011;64374;51.482;7.408;2023-10-19T12:43:30;9.37;;;2.83;;
4355;SDS011;64374;51.482;7.408;2023-10-19T12:46:01;8.50;;;3.00;;
4355;SDS011;64374;51.482;7.408;2023-10-19T12:48:29;5.57;;;2.80;;
4355;SDS011;64374;51.482;7.408;2023-10-19T12:51:02;8.18;;;2.70;;
4355;SDS011;64374;51.482;7.408;2023-10-19T12:53:35;6.50;;;2.30;;
4355;SDS011;64374;51.482;7.408;2023-10-19T12:56:05;7.00;;;2.80;;
4355;SDS011;64374;51.482;7.408;2023-10-19T12:58:37;6.47;;;2.75;;
4355;SDS011;64374;51.482;7.408;2023-10-19T13:01:06;6.32;;;2.60;;
4355;SDS011;64374;51.482;7.408;2023-10-19T13:03:42;5.50;;;2.30;;
4355;SDS011;64374;51.482;7.408;2023-10-19T13:06:16;9.15;;;2.90;;
4355;SDS011;64374;51.482;7.408;2023-10-19T13:08:46;7.70;;;2.40;;
4355;SDS011;64374;51.482;7.408;2023-10-19T13:11:16;5.57;;;2.10;;
4355;SDS011;64374;51.482;7.408;2023-10-19T13:13:46;5.93;;;2.50;;
4355;SDS011;64374;51.482;7.408;2023-10-19T13:16:15;6.88;;;2.47;;
4355;SDS011;64374;51.482;7.408;2023-10-19T13:19:02;6.75;;;2.78;;
4355;SDS011;64374;51.482;7.408;2023-10-19T13:21:57;6.70;;;2.70;;
4355;SDS011;64374;51.482;7.408;2023-10-19T13:24:52;6.57;;;2.50;;
4355;SDS011;64374;51.482;7.408;2023-10-19T13:27:41;6.15;;;2.40;;
4355;SDS011;64374;51.482;7.408;2023-10-19T13:30:31;6.53;;;2.60;;
4355;SDS011;64374;51.482;7.408;2023-10-19T13:33:22;9.82;;;4.63;;
4355;SDS011;64374;51.482;7.408;2023-10-19T13:36:09;10.00;;;5.18;;
4355;SDS011;64374;51.482;7.408;2023-10-19T13:38:55;9.13;;;4.95;;
4355;SDS011;64374;51.482;7.408;2023-10-19T13:41:42;8.55;;;3.20;;
4355;SDS011;64374;51.482;7.408;2023-10-19T13:44:28;7.40;;;3.03;;
4355;SDS011;64374;51.482;7.408;2023-10-19T13:46:59;7.60;;;2.80;;
4355;SDS011;64374;51.482;7.408;2023-10-19T13:49:31;6.38;;;2.60;;
4355;SDS011;64374;51.482;7.408;2023-10-19T13:51:59;6.53;;;2.37;;
4355;SDS011;64374;51.482;7.408;2023-10-19T13:54:31;5.70;;;2.38;;
4355;SDS011;64374;51.482;7.408;2023-10-19T13:56:59;8.38;;;2.72;;
4355;SDS011;64374;51.482;7.408;2023-10-19T13:59:30;6.22;;;2.50;;
4355;SDS011;64374;51.482;7.408;2023-10-19T14:02:01;7.82;;;2.75;;
4355;SDS011;64374;51.482;7.408;2023-10-19T14:04:31;8.00;;;3.00;;
4355;SDS011;64374;51.482;7.408;2023-10-19T14:06:59;6.45;;;2.90;;
4355;SDS011;64374;51.482;7.408;2023-10-19T14:09:28;11.43;;;5.20;;
4355;SDS011;64374;51.482;7.408;2023-10-19T14:11:58;19.33;;;8.38;;
4355;SDS011;64374;51.482;7.408;2023-10-19T14:14:29;27.20;;;15.73;;
4355;SDS011;64374;51.482;7.408;2023-10-19T14:16:58;87.27;;;48.37;;
4355;SDS011;64374;51.482;7.408;2023-10-19T14:19:28;122.30;;;59.50;;
4355;SDS011;64374;51.482;7.408;2023-10-19T14:22:10;49.15;;;27.92;;
4355;SDS011;64374;51.482;7.408;2023-10-19T14:24:40;31.73;;;16.88;;
4355;SDS011;64374;51.482;7.408;2023-10-19T14:27:08;25.93;;;13.80;;
4355;SDS011;64374;51.482;7.408;2023-10-19T14:29:37;26.00;;;14.57;;
4355;SDS011;64374;51.482;7.408;2023-10-19T14:32:08;36.22;;;15.27;;
4355;SDS011;64374;51.482;7.408;2023-10-19T14:34:37;22.10;;;9.85;;
4355;SDS011;64374;51.482;7.408;2023-10-19T14:37:05;14.35;;;8.05;;
4355;SDS011;64374;51.482;7.408;2023-10-19T14:39:34;13.50;;;8.48;;
4355;SDS011;64374;51.482;7.408;2023-10-19T14:42:05;17.90;;;8.48;;
4355;SDS011;64374;51.482;7.408;2023-10-19T14:44:35;11.63;;;6.28;;
4355;SDS011;64374;51.482;7.408;2023-10-19T14:47:25;13.07;;;5.80;;
4355;SDS011;64374;51.482;7.408;2023-10-19T14:50:13;9.00;;;4.15;;
4355;SDS011;64374;51.482;7.408;2023-10-19T14:53:04;13.82;;;5.82;;
4355;SDS011;64374;51.482;7.408;2023-10-19T14:55:51;17.63;;;5.70;;
4355;SDS011;64374;51.482;7.408;2023-10-19T14:58:43;11.00;;;4.47;;
4355;SDS011;64374;51.482;7.408;2023-10-19T15:01:31;13.13;;;4.53;;
4355;SDS011;64374;51.482;7.408;2023-10-19T15:04:19;10.13;;;4.27;;
4355;SDS011;64374;51.482;7.408;2023-10-19T15:07:05;5.72;;;3.58;;
4355;SDS011;64374;51.482;7.408;2023-10-19T15:09:52;7.85;;;3.60;;
4355;SDS011;64374;51.482;7.408;2023-10-19T15:12:38;10.38;;;3.80;;
4355;SDS011;64374;51.482;7.408;2023-10-19T15:15:26;8.27;;;4.10;;
4355;SDS011;64374;51.482;7.408;2023-10-19T15:18:13;9.55;;;4.00;;
4355;SDS011;64374;51.482;7.408;2023-10-19T15:21:06;10.40;;;3.80;;
4355;SDS011;64374;51.482;7.408;2023-10-19T15:23:53;7.97;;;3.40;;
4355;SDS011;64374;51.482;7.408;2023-10-19T15:26:40;6.40;;;3.10;;
4355;SDS011;64374;51.482;7.408;2023-10-19T15:29:27;7.60;;;3.00;;
4355;SDS011;64374;51.482;7.408;2023-10-19T15:32:14;4.65;;;2.75;;
4355;SDS011;64374;51.482;7.408;2023-10-19T15:35:01;8.48;;;3.10;;
4355;SDS011;64374;51.482;7.408;2023-10-19T15:37:57;7.73;;;3.70;;
4355;SDS011;64374;51.482;7.408;2023-10-19T15:40:43;7.63;;;3.30;;
4355;SDS011;64374;51.482;7.408;2023-10-19T15:43:30;7.10;;;3.00;;
4355;SDS011;64374;51.482;7.408;2023-10-19T15:46:17;7.88;;;3.10;;
4355;SDS011;64374;51.482;7.408;2023-10-19T15:49:08;6.10;;;3.10;;
4355;SDS011;64374;51.482;7.408;2023-10-19T15:52:00;8.38;;;3.92;;
4355;SDS011;64374;51.482;7.408;2023-10-19T15:54:49;8.52;;;3.63;;
4355;SDS011;64374;51.482;7.408;2023-10-19T15:57:36;9.07;;;3.60;;
4355;SDS011;64374;51.482;7.408;2023-10-19T16:00:23;8.00;;;3.30;;
4355;SDS011;64374;51.482;7.408;2023-10-19T16:03:09;8.02;;;3.40;;
4355;SDS011;64374;51.482;7.408;2023-10-19T16:05:57;8.52;;;3.50;;
4355;SDS011;64374;51.482;7.408;2023-10-19T16:08:43;6.35;;;3.00;;
4355;SDS011;64374;51.482;7.408;2023-10-19T16:11:31;6.15;;;2.80;;
4355;SDS011;64374;51.482;7.408;2023-10-19T16:14:19;7.73;;;3.37;;
4355;SDS011;64374;51.482;7.408;2023-10-19T16:17:06;9.18;;;3.40;;
4355;SDS011;64374;51.482;7.408;2023-10-19T16:19:54;9.57;;;3.30;;
4355;SDS011;64374;51.482;7.408;2023-10-19T16:22:43;10.05;;;4.15;;
4355;SDS011;64374;51.482;7.408;2023-10-19T16:25:30;11.48;;;3.83;;
4355;SDS011;64374;51.482;7.408;2023-10-19T16:28:20;6.38;;;3.45;;
4355;SDS011;64374;51.482;7.408;2023-10-19T16:31:07;8.98;;;2.80;;
4355;SDS011;64374;51.482;7.408;2023-10-19T16:33:57;7.90;;;3.90;;
4355;SDS011;64374;51.482;7.408;2023-10-19T16:36:43;10.93;;;3.60;;
4355;SDS011;64374;51.482;7.408;2023-10-19T16:39:33;6.55;;;3.00;;